PHL weather

Public forecast

Using degrees Fahrenheit for public forecast. Weather courtesy of forecast.io.

Current aviation weather report (METAR) for Philadelphia International Airport

Retrieved 2020/08/13 01:54 UTC (49 minutes ago):

KPHL 130154Z 18003KT 10SM SCT180 BKN250 24/23 A3006 RMK AO2 SLP179 T02390228

Aviation forecast (TAF) for Philadelphia International Airport

Retrieved 2020-08-13 00:22 UTC (2 hours ago):

TAF KPHL 122320Z 1300/1406 VRB03KT P6SM BKN150 FM130700 VRB02KT 2SM BR OVC005 FM131300 09005KT P6SM BKN150 PROB30 1315/1320 4SM TSRA BKN025CB FM132000 09005KT P6SM OVC050 PROB30 1320/1324 4SM TSRA BKN025CB FM140000 08005KT P6SM OVC150